Time;durP1;ratioP1;P1;durP2;ratioP2;P2;SDS_P1;SDS_P2;PMS_P1;PMS_P2;Temp;Humidity;BMP_temperature;BMP_pressure;BME280_temperature;BME280_humidity;BME280_pressure;Samples;Min_cycle;Max_cycle;Signal;HPM_P1;HPM_P2
2024/04/21 00:01:47;;;;;;;4.85;1.65;;;5.60;99.90;;;;;;5423924;26;20226;-80
2024/04/21 00:04:16;;;;;;;10.55;1.30;;;5.60;99.90;;;;;;5423533;26;20268;-79
2024/04/21 00:06:44;;;;;;;10.65;1.75;;;5.60;99.90;;;;;;5425642;26;20275;-81
2024/04/21 00:09:10;;;;;;;5.53;1.77;;;5.60;99.90;;;;;;5416561;26;20834;-80
2024/04/21 00:11:39;;;;;;;2.47;1.50;;;5.50;99.90;;;;;;5417476;26;20253;-80
2024/04/21 00:14:05;;;;;;;5.90;1.58;;;5.40;99.90;;;;;;5413529;26;20475;-80
2024/04/21 00:16:33;;;;;;;8.20;1.90;;;5.40;99.90;;;;;;5415793;26;20635;-78
2024/04/21 00:18:59;;;;;;;5.93;1.40;;;5.40;99.90;;;;;;5417609;26;20284;-79
2024/04/21 00:21:32;;;;;;;6.85;1.70;;;5.40;99.90;;;;;;5425773;26;20237;-80
2024/04/21 00:23:58;;;;;;;6.03;1.75;;;5.30;99.90;;;;;;5426742;26;20276;-78
2024/04/21 00:26:27;;;;;;;5.82;1.65;;;5.30;99.90;;;;;;5428652;26;20233;-78
2024/04/21 00:28:53;;;;;;;8.32;1.48;;;5.30;99.90;;;;;;5429353;26;20626;-79
2024/04/21 00:31:22;;;;;;;7.60;1.77;;;5.30;99.90;;;;;;5428124;26;20233;-80
2024/04/21 00:33:48;;;;;;;4.28;2.05;;;5.30;99.90;;;;;;5431969;26;20510;-77
2024/04/21 00:36:16;;;;;;;5.22;1.67;;;5.30;99.90;;;;;;5437464;26;20295;-77
2024/04/21 00:38:46;;;;;;;2.30;1.75;;;5.20;99.90;;;;;;5438512;26;20233;-77
2024/04/21 00:41:14;;;;;;;3.38;1.42;;;5.30;99.90;;;;;;5438448;26;20229;-77
2024/04/21 00:43:40;;;;;;;7.93;1.45;;;5.30;99.90;;;;;;5436242;26;20283;-77
2024/04/21 00:46:10;;;;;;;2.43;1.30;;;5.30;99.90;;;;;;5437367;26;20225;-77
2024/04/21 00:48:37;;;;;;;2.88;1.27;;;5.30;99.90;;;;;;5426109;26;20455;-78
2024/04/21 00:51:07;;;;;;;7.85;1.55;;;5.30;99.90;;;;;;5436679;26;20268;-78
2024/04/21 00:53:34;;;;;;;4.63;1.60;;;5.30;99.90;;;;;;5431563;26;20231;-77
2024/04/21 00:56:07;;;;;;;7.28;2.05;;;5.30;99.90;;;;;;5431639;26;20338;-79
2024/04/21 00:58:33;;;;;;;1.90;1.80;;;5.20;99.90;;;;;;5429758;26;20311;-80
2024/04/21 01:01:03;;;;;;;3.75;1.40;;;5.20;99.90;;;;;;5430042;26;20275;-78
2024/04/21 01:03:30;;;;;;;1.50;0.90;;;5.20;99.90;;;;;;5430856;26;20234;-79
2024/04/21 01:05:58;;;;;;;2.75;1.35;;;5.10;99.90;;;;;;5430527;26;20241;-78
2024/04/21 01:08:24;;;;;;;2.45;0.80;;;5.00;99.90;;;;;;5430385;26;20288;-78
2024/04/21 01:10:53;;;;;;;2.13;1.40;;;5.00;99.90;;;;;;5432814;26;20319;-77
2024/04/21 01:13:22;;;;;;;2.25;1.23;;;4.90;99.90;;;;;;5434620;26;20230;-80
2024/04/21 01:15:52;;;;;;;4.30;1.20;;;4.80;99.90;;;;;;5435872;26;20225;-77
2024/04/21 01:18:19;;;;;;;2.08;1.30;;;4.70;99.90;;;;;;5433190;26;20272;-78
2024/04/21 01:20:48;;;;;;;3.38;1.20;;;4.60;99.90;;;;;;5434499;26;20237;-78
2024/04/21 01:23:18;;;;;;;1.88;1.00;;;4.60;99.90;;;;;;5434267;26;20229;-78
2024/04/21 01:25:47;;;;;;;2.85;1.17;;;4.50;99.90;;;;;;5423968;26;20279;-78
2024/04/21 01:28:13;;;;;;;1.73;0.80;;;4.50;99.90;;;;;;5434675;26;20597;-79
2024/04/21 01:30:42;;;;;;;3.22;1.73;;;4.50;99.90;;;;;;5436282;26;20229;-78
2024/04/21 01:33:08;;;;;;;3.58;1.55;;;4.50;99.90;;;;;;5430347;26;20237;-79
2024/04/21 01:35:37;;;;;;;2.77;1.07;;;4.40;99.90;;;;;;5402787;26;20280;-77
2024/04/21 01:38:03;;;;;;;2.58;1.35;;;4.40;99.90;;;;;;5430314;26;20512;-77
2024/04/21 01:40:35;;;;;;;3.10;2.15;;;4.30;99.90;;;;;;5432018;26;20245;-78
2024/04/21 01:43:01;;;;;;;2.35;1.88;;;4.40;99.90;;;;;;5433262;26;20230;-79
2024/04/21 01:45:29;;;;;;;2.50;1.80;;;4.20;99.90;;;;;;5434775;26;20273;-80
2024/04/21 01:47:55;;;;;;;2.45;1.73;;;4.30;99.90;;;;;;5433296;26;20237;-80
2024/04/21 01:50:24;;;;;;;3.00;2.00;;;4.30;99.90;;;;;;5435707;26;20276;-79
2024/04/21 01:52:50;;;;;;;2.22;2.03;;;4.20;99.90;;;;;;5434890;26;20455;-78
2024/04/21 01:55:19;;;;;;;2.70;1.45;;;4.30;99.90;;;;;;5438266;26;20267;-78
2024/04/21 01:57:47;;;;;;;3.20;1.50;;;4.40;99.90;;;;;;5436093;26;20363;-77
2024/04/21 02:00:16;;;;;;;3.67;2.70;;;4.50;99.90;;;;;;5431913;26;20238;-77
2024/04/21 02:02:42;;;;;;;2.58;2.38;;;4.50;99.90;;;;;;5428518;26;20276;-78
2024/04/21 02:05:10;;;;;;;3.67;1.80;;;4.40;99.90;;;;;;5429268;26;20218;-78
2024/04/21 02:07:36;;;;;;;2.50;1.33;;;4.40;99.90;;;;;;5414387;26;20463;-77
2024/04/21 02:10:06;;;;;;;3.35;1.50;;;4.30;99.90;;;;;;5427933;26;20308;-78
2024/04/21 02:12:32;;;;;;;2.13;1.30;;;4.30;99.90;;;;;;5427456;26;20341;-81
2024/04/21 02:15:03;;;;;;;1.60;1.40;;;4.20;99.90;;;;;;5428460;26;20237;-80
2024/04/21 02:17:29;;;;;;;1.85;1.35;;;4.20;99.90;;;;;;5428151;26;20237;-80
2024/04/21 02:19:57;;;;;;;1.40;1.30;;;4.10;99.90;;;;;;5427716;26;20273;-79
2024/04/21 02:22:23;;;;;;;2.25;1.30;;;4.10;99.90;;;;;;5426538;26;20522;-79
2024/04/21 02:24:52;;;;;;;1.60;1.27;;;4.10;99.90;;;;;;5420952;26;20778;-77
2024/04/21 02:27:18;;;;;;;2.80;1.27;;;4.20;99.90;;;;;;5426914;26;20471;-78
2024/04/21 02:29:47;;;;;;;1.50;1.10;;;4.20;99.90;;;;;;5427123;26;20284;-79
2024/04/21 02:32:15;;;;;;;1.80;1.08;;;4.20;99.90;;;;;;5424797;26;20467;-81
2024/04/21 02:34:45;;;;;;;2.05;0.90;;;4.20;99.90;;;;;;5422657;26;20797;-80
2024/04/21 02:37:11;;;;;;;1.10;0.80;;;4.20;99.90;;;;;;5423427;26;20280;-81
2024/04/21 02:39:39;;;;;;;1.13;1.05;;;4.20;99.90;;;;;;5426069;26;20301;-80
2024/04/21 02:42:05;;;;;;;2.55;1.27;;;4.10;99.90;;;;;;5424828;26;20229;-78
2024/04/21 02:44:34;;;;;;;2.55;1.38;;;4.10;99.90;;;;;;5426148;26;20610;-81
2024/04/21 02:47:00;;;;;;;3.28;1.33;;;4.10;99.90;;;;;;5424584;26;20233;-77
2024/04/21 02:49:31;;;;;;;2.90;1.70;;;4.10;99.90;;;;;;5423179;26;20276;-80
2024/04/21 02:51:57;;;;;;;1.60;1.45;;;4.10;99.90;;;;;;5425590;26;20463;-81
2024/04/21 02:54:26;;;;;;;4.28;1.42;;;4.10;99.90;;;;;;5426221;26;20241;-80
2024/04/21 02:56:52;;;;;;;2.05;1.70;;;4.10;99.90;;;;;;5426964;26;20644;-80
2024/04/21 02:59:21;;;;;;;2.13;1.93;;;4.10;99.90;;;;;;5426267;26;20275;-80
2024/04/21 03:01:47;;;;;;;2.45;1.67;;;4.10;99.90;;;;;;5424292;26;20467;-80
2024/04/21 03:04:18;;;;;;;2.83;2.60;;;4.00;99.90;;;;;;5423549;26;20305;-81
2024/04/21 03:06:48;;;;;;;5.82;2.38;;;4.00;99.90;;;;;;5423427;26;20619;-78
2024/04/21 03:09:17;;;;;;;2.20;1.83;;;3.90;99.90;;;;;;5422627;26;20241;-79
2024/04/21 03:11:45;;;;;;;3.60;2.33;;;3.90;99.90;;;;;;5422454;26;20233;-78
2024/04/21 03:14:15;;;;;;;5.65;1.80;;;3.80;99.90;;;;;;5422389;26;20233;-77
2024/04/21 03:16:41;;;;;;;3.17;2.30;;;3.80;99.90;;;;;;5422064;26;20233;-79
2024/04/21 03:19:10;;;;;;;2.50;1.92;;;3.70;99.90;;;;;;5420426;26;20762;-79
2024/04/21 03:21:36;;;;;;;2.35;1.83;;;3.70;99.90;;;;;;5407395;26;20275;-78
2024/04/21 03:24:08;;;;;;;3.30;2.20;;;3.70;99.90;;;;;;5424521;26;20620;-78
2024/04/21 03:26:34;;;;;;;7.85;2.13;;;3.60;99.90;;;;;;5427177;26;20237;-79
2024/04/21 03:29:02;;;;;;;3.17;2.27;;;3.60;99.90;;;;;;5434763;26;20294;-77
2024/04/21 03:31:28;;;;;;;2.88;2.13;;;3.60;99.90;;;;;;5437243;26;20451;-78
2024/04/21 03:33:57;;;;;;;2.87;2.13;;;3.60;99.90;;;;;;5436623;26;20336;-76
2024/04/21 03:36:23;;;;;;;5.50;2.50;;;3.60;99.90;;;;;;5435176;26;20527;-78
2024/04/21 03:38:51;;;;;;;5.85;2.38;;;3.60;99.90;;;;;;5434329;26;20233;-77
2024/04/21 03:41:23;;;;;;;5.22;3.10;;;3.60;99.90;;;;;;5434190;26;20271;-78
2024/04/21 03:43:51;;;;;;;4.05;3.10;;;3.50;99.90;;;;;;5435599;26;20268;-79
2024/04/21 03:46:20;;;;;;;2.42;2.20;;;3.50;99.90;;;;;;5428159;26;20279;-79
2024/04/21 03:48:46;;;;;;;10.73;3.70;;;3.50;99.90;;;;;;5427306;26;20291;-81
2024/04/21 03:51:14;;;;;;;6.68;2.70;;;3.50;99.90;;;;;;5427073;26;20237;-80
2024/04/21 03:53:40;;;;;;;5.20;3.05;;;3.40;99.90;;;;;;5430456;26;20288;-77
2024/04/21 03:56:09;;;;;;;4.23;2.70;;;3.40;99.90;;;;;;5430941;26;20297;-80
2024/04/21 03:58:37;;;;;;;9.68;3.47;;;3.40;99.90;;;;;;5427978;26;20475;-80
2024/04/21 04:01:06;;;;;;;5.78;3.15;;;3.50;99.90;;;;;;5429952;26;20272;-79
2024/04/21 04:03:32;;;;;;;6.57;3.90;;;3.50;99.90;;;;;;5431156;26;20276;-80
2024/04/21 04:06:01;;;;;;;3.67;2.58;;;3.50;99.90;;;;;;5430627;26;20237;-80
2024/04/21 04:08:27;;;;;;;5.50;3.90;;;3.50;99.90;;;;;;5431354;26;20237;-77
2024/04/21 04:10:55;;;;;;;6.97;4.05;;;3.50;99.90;;;;;;5431198;26;20287;-80
2024/04/21 04:13:21;;;;;;;4.53;3.70;;;3.50;99.90;;;;;;5433553;26;20284;-77
2024/04/21 04:15:52;;;;;;;8.93;3.60;;;3.60;99.90;;;;;;5436252;26;20233;-78
2024/04/21 04:18:18;;;;;;;5.43;3.03;;;3.60;99.90;;;;;;5433393;26;20478;-78
2024/04/21 04:20:48;;;;;;;5.50;4.00;;;3.60;99.90;;;;;;5433956;26;20302;-78
2024/04/21 04:23:14;;;;;;;9.18;3.40;;;3.70;99.90;;;;;;5428371;26;20467;-77
2024/04/21 04:25:43;;;;;;;7.53;5.50;;;3.80;99.90;;;;;;5430964;26;20744;-78
2024/04/21 04:28:09;;;;;;;7.45;3.42;;;3.70;99.90;;;;;;5430283;26;21154;-79
2024/04/21 04:30:37;;;;;;;4.50;4.10;;;3.80;99.90;;;;;;5429315;26;20237;-80
2024/04/21 04:33:06;;;;;;;5.70;3.70;;;3.90;99.90;;;;;;5429805;26;20515;-78
2024/04/21 04:35:34;;;;;;;5.82;3.75;;;3.90;99.90;;;;;;5432290;26;20233;-78
2024/04/21 04:38:00;;;;;;;5.70;3.60;;;3.90;99.90;;;;;;5423966;26;20292;-79
2024/04/21 04:40:29;;;;;;;7.95;3.80;;;4.00;99.90;;;;;;5429070;26;20233;-78
2024/04/21 04:42:57;;;;;;;8.32;4.47;;;4.00;99.90;;;;;;5429969;26;20229;-79
2024/04/21 04:45:25;;;;;;;6.80;4.78;;;4.20;99.90;;;;;;5431045;26;20233;-79
2024/04/21 04:47:51;;;;;;;9.23;4.18;;;4.20;99.90;;;;;;5432443;26;20276;-79
2024/04/21 04:50:22;;;;;;;11.90;5.47;;;4.40;99.90;;;;;;5432639;26;20233;-78
2024/04/21 04:52:55;;;;;;;7.05;4.97;;;4.30;99.90;;;;;;5433197;26;20467;-80
2024/04/21 04:55:23;;;;;;;6.75;5.00;;;4.40;99.90;;;;;;5433987;26;20229;-78
2024/04/21 04:57:52;;;;;;;8.38;4.72;;;4.50;99.90;;;;;;5433768;26;20700;-79
2024/04/21 05:00:18;;;;;;;8.07;5.70;;;4.60;99.90;;;;;;5432163;26;20272;-79
2024/04/21 05:02:47;;;;;;;6.40;5.53;;;4.70;99.90;;;;;;5430273;26;20229;-78
2024/04/21 05:05:13;;;;;;;9.93;5.47;;;4.90;99.90;;;;;;5433121;26;20523;-77
2024/04/21 05:07:45;;;;;;;6.78;4.85;;;5.00;99.90;;;;;;5432330;26;20618;-78
2024/04/21 05:10:13;;;;;;;6.50;5.18;;;5.10;99.90;;;;;;5431806;26;20229;-78
2024/04/21 05:12:42;;;;;;;7.38;5.32;;;5.20;99.90;;;;;;5430879;26;20241;-79
2024/04/21 05:15:08;;;;;;;7.47;6.20;;;5.50;99.90;;;;;;5429656;26;20284;-81
2024/04/21 05:17:37;;;;;;;5.55;4.85;;;6.00;99.90;;;;;;5427389;26;20357;-79
2024/04/21 05:20:03;;;;;;;5.55;4.95;;;6.50;99.90;;;;;;5430214;26;20233;-79
2024/04/21 05:22:32;;;;;;;4.38;3.92;;;7.00;99.90;;;;;;5420983;26;20263;-80
2024/04/21 05:25:00;;;;;;;5.20;4.70;;;7.30;99.90;;;;;;5420588;26;20237;-79
2024/04/21 05:27:29;;;;;;;6.13;4.22;;;7.80;99.90;;;;;;5421614;26;20229;-78
2024/04/21 05:29:56;;;;;;;3.85;3.55;;;8.40;99.90;;;;;;5421585;26;20238;-79
2024/04/21 05:32:25;;;;;;;3.40;3.05;;;9.30;99.90;;;;;;5427763;26;20814;-77
2024/04/21 05:34:51;;;;;;;4.40;3.55;;;10.00;99.90;;;;;;5427177;26;20233;-78
2024/04/21 05:37:19;;;;;;;4.33;3.93;;;10.40;99.90;;;;;;5424020;26;20234;-79
2024/04/21 05:39:45;;;;;;;3.67;3.20;;;10.70;99.90;;;;;;5421274;26;20471;-79
2024/04/21 05:42:16;;;;;;;4.00;2.90;;;11.30;99.90;;;;;;5425920;26;20284;-78
2024/04/21 05:44:42;;;;;;;3.47;3.13;;;12.30;99.90;;;;;;5416489;26;20532;-79
2024/04/21 05:47:11;;;;;;;4.33;3.50;;;13.20;99.90;;;;;;5425798;26;20233;-80
2024/04/21 05:49:39;;;;;;;3.50;2.75;;;13.80;99.60;;;;;;5423341;26;20539;-79
2024/04/21 05:52:06;;;;;;;3.90;3.58;;;14.00;97.50;;;;;;5421340;26;20229;-80
2024/04/21 05:54:34;;;;;;;4.50;4.10;;;14.40;97.20;;;;;;5420930;26;20621;-80
2024/04/21 05:57:00;;;;;;;7.95;5.65;;;14.70;96.00;;;;;;5420850;26;20268;-79
2024/04/21 05:59:32;;;;;;;3.60;3.20;;;15.20;95.80;;;;;;5419779;26;20234;-80
2024/04/21 06:01:58;;;;;;;3.33;3.03;;;16.10;94.10;;;;;;5419285;26;20548;-80
2024/04/21 06:04:29;;;;;;;5.37;3.57;;;16.80;92.50;;;;;;5419894;26;20592;-78
2024/04/21 06:06:55;;;;;;;3.70;3.40;;;17.00;91.40;;;;;;5419746;26;20891;-79
2024/04/21 06:09:23;;;;;;;4.00;3.60;;;17.60;90.40;;;;;;5420685;26;20479;-79
2024/04/21 06:11:52;;;;;;;3.40;3.10;;;18.30;89.70;;;;;;5419274;26;20519;-80
2024/04/21 06:14:20;;;;;;;3.50;3.20;;;18.80;88.30;;;;;;5418071;26;20557;-79
2024/04/21 06:16:49;;;;;;;4.03;3.30;;;19.10;86.20;;;;;;5423838;26;20471;-78
2024/04/21 06:19:18;;;;;;;3.43;3.10;;;19.80;85.10;;;;;;5423729;26;20523;-80
2024/04/21 06:21:44;;;;;;;3.60;3.30;;;20.00;83.30;;;;;;5430363;26;20510;-78
2024/04/21 06:24:12;;;;;;;3.80;3.20;;;19.50;82.20;;;;;;5434806;26;20478;-78
2024/04/21 06:26:38;;;;;;;5.37;3.73;;;19.90;82.00;;;;;;5435569;26;20466;-78
2024/04/21 06:29:07;;;;;;;5.67;3.70;;;19.90;81.10;;;;;;5434063;26;20514;-78
2024/04/21 06:31:33;;;;;;;3.77;3.37;;;19.80;81.00;;;;;;5433487;26;20538;-78
2024/04/21 06:34:04;;;;;;;3.50;3.20;;;19.70;80.70;;;;;;5433100;26;20446;-78
2024/04/21 06:36:30;;;;;;;4.40;4.00;;;20.00;81.10;;;;;;5432611;26;20496;-79
2024/04/21 06:38:59;;;;;;;3.10;2.80;;;19.80;79.80;;;;;;5428065;26;20823;-79
2024/04/21 06:41:25;;;;;;;3.80;3.50;;;20.10;79.70;;;;;;5424670;26;20523;-80
2024/04/21 06:43:53;;;;;;;3.60;3.30;;;20.30;78.80;;;;;;5424476;26;21008;-79
2024/04/21 06:46:19;;;;;;;3.50;3.20;;;20.20;79.00;;;;;;5427256;26;20852;-79
2024/04/21 06:48:48;;;;;;;3.40;3.10;;;20.30;79.10;;;;;;5427034;26;20536;-78
2024/04/21 06:51:17;;;;;;;5.10;3.60;;;20.80;79.30;;;;;;5428214;26;20514;-79
2024/04/21 06:53:45;;;;;;;3.80;3.40;;;21.00;77.90;;;;;;5412365;26;20878;-78
2024/04/21 06:56:12;;;;;;;3.70;3.40;;;21.20;76.90;;;;;;5426644;26;20590;-78
2024/04/21 06:58:41;;;;;;;4.03;3.60;;;21.10;77.30;;;;;;5429351;26;20479;-80
2024/04/21 07:01:07;;;;;;;5.00;4.50;;;21.10;76.80;;;;;;5430473;26;20469;-78
2024/04/21 07:03:36;;;;;;;4.03;3.63;;;21.30;76.20;;;;;;5425323;26;21003;-80
2024/04/21 07:06:02;;;;;;;4.37;3.70;;;21.50;75.90;;;;;;5423997;26;20469;-79
2024/04/21 07:08:33;;;;;;;4.13;3.73;;;21.20;76.00;;;;;;5417128;26;20540;-79
2024/04/21 07:10:59;;;;;;;4.60;4.10;;;20.30;76.60;;;;;;5419590;26;20474;-78
2024/04/21 07:13:28;;;;;;;4.20;3.50;;;18.60;78.70;;;;;;5422680;26;20467;-79
2024/04/21 07:15:54;;;;;;;4.00;3.60;;;17.80;80.70;;;;;;5421664;26;21066;-78
2024/04/21 07:18:23;;;;;;;4.17;3.67;;;17.00;80.50;;;;;;5421318;26;20476;-77
2024/04/21 07:20:50;;;;;;;4.30;3.90;;;16.50;83.30;;;;;;5428136;26;20481;-82
2024/04/21 07:23:19;;;;;;;3.70;3.30;;;16.30;83.40;;;;;;5429931;26;20470;-84
2024/04/21 07:25:48;;;;;;;4.43;3.60;;;16.80;86.10;;;;;;5414095;26;20474;-83
2024/04/21 07:28:16;;;;;;;4.30;3.40;;;18.00;84.10;;;;;;5419206;26;20471;-78
2024/04/21 07:30:42;;;;;;;3.50;3.20;;;18.80;81.60;;;;;;5408132;26;21020;-80
2024/04/21 07:33:11;;;;;;;3.70;3.40;;;19.70;78.90;;;;;;5422602;26;20519;-79
2024/04/21 07:35:37;;;;;;;4.57;3.30;;;20.30;77.30;;;;;;5421536;26;21058;-80
2024/04/21 07:38:11;;;;;;;3.40;3.10;;;21.20;74.40;;;;;;5421797;26;20471;-80
2024/04/21 07:40:38;;;;;;;2.93;2.73;;;21.80;72.10;;;;;;5424148;26;20481;-79
2024/04/21 07:43:11;;;;;;;4.23;3.80;;;21.50;71.80;;;;;;5423769;26;20875;-80
2024/04/21 07:45:37;;;;;;;4.20;3.80;;;21.50;69.80;;;;;;5421686;26;21177;-81
2024/04/21 07:48:06;;;;;;;4.63;3.43;;;21.40;73.10;;;;;;5422664;26;20457;-79
2024/04/21 07:50:34;;;;;;;4.27;3.23;;;21.70;73.40;;;;;;5422515;26;20459;-80
2024/04/21 07:53:02;;;;;;;6.90;3.30;;;21.60;69.30;;;;;;5422821;26;20469;-78
2024/04/21 07:55:28;;;;;;;4.20;3.20;;;21.30;70.50;;;;;;5426593;26;20523;-77
2024/04/21 07:57:57;;;;;;;7.60;3.70;;;21.40;69.50;;;;;;5427449;26;20546;-82
2024/04/21 08:00:26;;;;;;;3.43;2.73;;;20.90;69.80;;;;;;5429348;26;20509;-82
2024/04/21 08:02:55;;;;;;;4.37;3.07;;;21.10;70.10;;;;;;5432980;26;20464;-82
2024/04/21 08:05:21;;;;;;;5.77;3.60;;;21.30;70.70;;;;;;5429458;26;20459;-81
2024/04/21 08:07:50;;;;;;;2.73;2.47;;;21.80;70.20;;;;;;5431666;26;20474;-80
2024/04/21 08:10:16;;;;;;;3.03;2.77;;;22.30;67.50;;;;;;5430358;26;20519;-82
2024/04/21 08:12:45;;;;;;;3.83;3.37;;;22.60;65.50;;;;;;5431552;26;20455;-81
2024/04/21 08:15:10;;;;;;;2.70;2.50;;;22.50;64.50;;;;;;5435150;26;20885;-80
2024/04/21 08:17:42;;;;;;;3.03;2.83;;;22.10;61.60;;;;;;5430694;26;20566;-79
2024/04/21 08:20:09;;;;;;;2.70;2.50;;;21.40;62.20;;;;;;5431423;26;21008;-79
2024/04/21 08:22:37;;;;;;;7.10;3.13;;;21.60;63.10;;;;;;5429151;26;20482;-80
2024/04/21 08:25:04;;;;;;;4.13;3.73;;;21.50;63.30;;;;;;5429471;26;20525;-79
2024/04/21 08:27:32;;;;;;;4.10;3.63;;;21.40;63.40;;;;;;5430586;26;20466;-80
2024/04/21 08:29:58;;;;;;;4.27;2.70;;;21.50;62.60;;;;;;5431595;26;20471;-79
2024/04/21 08:32:27;;;;;;;3.90;2.73;;;21.50;61.10;;;;;;5435111;26;21040;-77
2024/04/21 08:34:55;;;;;;;2.97;2.70;;;21.10;61.60;;;;;;5436485;26;20518;-79
2024/04/21 08:37:24;;;;;;;3.37;3.07;;;21.50;60.50;;;;;;5431400;26;20696;-78
2024/04/21 08:39:50;;;;;;;3.80;3.20;;;20.90;58.60;;;;;;5433455;26;20461;-77
2024/04/21 08:42:19;;;;;;;3.67;3.37;;;21.10;59.70;;;;;;5432281;26;20463;-77
2024/04/21 08:44:45;;;;;;;3.37;2.80;;;20.90;60.10;;;;;;5432031;26;20471;-79
2024/04/21 08:47:15;;;;;;;2.80;2.60;;;21.40;61.30;;;;;;5430999;26;20566;-78
2024/04/21 08:49:42;;;;;;;3.63;2.50;;;21.30;58.60;;;;;;5429304;26;20479;-78
2024/04/21 08:52:13;;;;;;;3.23;2.97;;;21.10;56.70;;;;;;5425920;26;20520;-79
2024/04/21 08:54:39;;;;;;;3.67;3.37;;;20.80;56.50;;;;;;5427175;26;20536;-79
2024/04/21 08:57:10;;;;;;;3.27;2.80;;;21.10;57.50;;;;;;5423183;26;20475;-80
2024/04/21 08:59:40;;;;;;;4.37;3.33;;;21.70;59.10;;;;;;5411550;26;20958;-78
2024/04/21 09:02:11;;;;;;;3.50;3.20;;;21.70;56.60;;;;;;5417670;26;20471;-78
2024/04/21 09:04:40;;;;;;;3.53;2.93;;;22.00;56.10;;;;;;5419786;26;20463;-77
2024/04/21 09:07:09;;;;;;;3.20;2.80;;;21.50;53.60;;;;;;5419968;26;20889;-78
2024/04/21 09:09:38;;;;;;;3.90;3.10;;;21.20;54.20;;;;;;5424622;26;20823;-77
2024/04/21 09:12:08;;;;;;;3.27;2.97;;;21.50;55.10;;;;;;5425234;26;20540;-77
2024/04/21 09:14:40;;;;;;;2.70;2.50;;;21.90;56.10;;;;;;5419351;26;21052;-77
2024/04/21 09:17:12;;;;;;;3.33;3.07;;;21.40;52.80;;;;;;5427537;26;20542;-78
2024/04/21 09:19:38;;;;;;;3.43;3.23;;;20.90;53.20;;;;;;5435513;26;20580;-78
2024/04/21 09:22:07;;;;;;;4.27;3.00;;;20.40;52.60;;;;;;5436194;26;20459;-79
2024/04/21 09:24:33;;;;;;;4.20;3.80;;;19.00;52.90;;;;;;5434186;26;20542;-76
2024/04/21 09:27:05;;;;;;;3.80;3.50;;;18.40;55.70;;;;;;5435439;26;20508;-79
2024/04/21 09:29:31;;;;;;;3.73;3.43;;;18.50;57.30;;;;;;5435520;26;20475;-78
2024/04/21 09:31:59;;;;;;;3.50;3.30;;;18.50;58.30;;;;;;5434973;26;20472;-78
2024/04/21 09:34:26;;;;;;;3.77;3.40;;;19.00;57.50;;;;;;5430497;26;20558;-78
2024/04/21 09:36:56;;;;;;;3.10;2.90;;;19.60;55.10;;;;;;5423841;26;20467;-77
2024/04/21 09:39:22;;;;;;;4.83;2.93;;;20.30;54.70;;;;;;5426425;26;20591;-78
2024/04/21 09:41:54;;;;;;;3.13;2.93;;;20.90;54.60;;;;;;5425809;26;20472;-79
2024/04/21 09:44:49;;;;;;;3.30;3.07;;;19.80;52.80;;;;;;5427537;26;20563;-79
2024/04/21 09:47:19;;;;;;;3.70;3.40;;;18.70;54.50;;;;;;5384815;26;20479;-80
2024/04/21 09:49:46;;;;;;;3.73;3.43;;;18.90;56.50;;;;;;5408877;26;20478;-80
2024/04/21 09:52:28;;;;;;;3.77;3.43;;;19.30;55.80;;;;;;5421969;26;21000;-79
2024/04/21 09:55:02;;;;;;;3.70;3.40;;;19.50;55.50;;;;;;5412652;26;20467;-80
2024/04/21 09:57:35;;;;;;;6.07;3.90;;;18.70;55.20;;;;;;5421185;26;20527;-80
2024/04/21 10:00:20;;;;;;;4.10;3.80;;;17.90;56.70;;;;;;5421193;26;20533;-81
2024/04/21 10:03:02;;;;;;;3.55;3.25;;;16.50;58.10;;;;;;5407745;26;20972;-78
2024/04/21 10:05:30;;;;;;;3.73;3.47;;;15.80;59.80;;;;;;5423749;26;20226;-80
2024/04/21 10:08:01;;;;;;;4.73;4.33;;;16.20;60.20;;;;;;5415840;26;20467;-80
2024/04/21 10:10:34;;;;;;;3.72;3.53;;;16.40;59.50;;;;;;5417514;26;20537;-79
2024/04/21 10:13:03;;;;;;;3.55;3.35;;;16.00;59.40;;;;;;5420606;26;20234;-79
2024/04/21 10:15:32;;;;;;;3.70;3.40;;;15.60;59.50;;;;;;5420703;26;20251;-79
2024/04/21 10:18:02;;;;;;;4.03;3.63;;;16.00;59.10;;;;;;5417114;26;20476;-78
2024/04/21 10:20:30;;;;;;;4.40;4.00;;;16.40;57.60;;;;;;5420831;26;20571;-82
2024/04/21 10:23:03;;;;;;;3.80;3.50;;;16.90;57.10;;;;;;5422018;26;20478;-79
2024/04/21 10:25:32;;;;;;;5.37;3.80;;;17.50;57.00;;;;;;5420697;26;20513;-82
2024/04/21 10:28:07;;;;;;;3.03;2.83;;;17.90;57.80;;;;;;5417776;26;20558;-82
2024/04/21 10:30:37;;;;;;;3.20;3.00;;;18.30;54.60;;;;;;5417518;26;20470;-79
2024/04/21 10:33:10;;;;;;;3.60;3.30;;;17.60;54.80;;;;;;5423199;26;20519;-80
2024/04/21 10:35:37;;;;;;;3.10;2.90;;;17.80;56.90;;;;;;5420460;26;20463;-80
2024/04/21 10:38:07;;;;;;;3.60;3.30;;;18.10;56.40;;;;;;5423910;26;20518;-78
2024/04/21 10:40:37;;;;;;;3.70;3.47;;;17.60;57.10;;;;;;5421750;26;20478;-78
2024/04/21 10:43:07;;;;;;;4.37;3.97;;;17.00;57.50;;;;;;5421728;26;20592;-80
2024/04/21 10:45:38;;;;;;;4.40;4.10;;;16.40;58.40;;;;;;5422460;26;20524;-79
2024/04/21 10:48:08;;;;;;;4.93;4.17;;;16.00;58.90;;;;;;5422146;26;20471;-78
2024/04/21 10:50:35;;;;;;;4.53;4.13;;;15.60;59.10;;;;;;5423086;26;20466;-77
2024/04/21 10:56:09;;;;;;;5.72;4.38;;;15.40;59.90;;;;;;5415936;26;20268;-82
2024/04/21 10:58:37;;;;;;;4.15;3.85;;;15.40;60.20;;;;;;5422218;26;20237;-82
2024/04/21 11:01:34;;;;;;;3.70;3.40;;;15.60;59.70;;;;;;5425031;26;20237;-82
2024/04/21 11:04:01;;;;;;;4.35;4.05;;;15.80;59.20;;;;;;5415795;26;20241;-80
2024/04/21 11:06:30;;;;;;;3.60;3.30;;;16.20;59.80;;;;;;5428468;26;20272;-83
2024/04/21 11:08:57;;;;;;;3.40;3.20;;;16.50;58.60;;;;;;5426867;26;20477;-82
2024/04/21 11:11:31;;;;;;;3.73;3.43;;;16.60;58.60;;;;;;5429266;26;20472;-84
2024/04/21 11:13:59;;;;;;;4.20;3.90;;;16.70;58.20;;;;;;5429851;26;20854;-83
2024/04/21 11:16:35;;;;;;;4.53;4.13;;;16.70;57.70;;;;;;5416289;26;20507;-79
2024/04/21 11:19:01;;;;;;;4.00;3.70;;;15.90;57.10;;;;;;5427432;26;20275;-79
2024/04/21 11:21:37;;;;;;;4.57;4.27;;;15.80;58.50;;;;;;5430671;26;20233;-82
2024/04/21 11:24:04;;;;;;;3.78;3.47;;;15.90;58.50;;;;;;5425320;26;20472;-79
2024/04/21 11:26:34;;;;;;;3.92;3.63;;;15.70;57.70;;;;;;5419528;26;20225;-81
2024/04/21 11:29:00;;;;;;;3.60;3.40;;;15.50;57.60;;;;;;5427141;26;20237;-81
2024/04/21 11:31:31;;;;;;;4.03;3.72;;;15.30;57.80;;;;;;5417182;26;20272;-81
2024/04/21 11:34:00;;;;;;;3.15;2.95;;;15.60;58.50;;;;;;5424303;26;20237;-80
2024/04/21 11:36:36;;;;;;;4.70;4.35;;;15.80;58.00;;;;;;5429521;26;20229;-83
2024/04/21 11:39:03;;;;;;;3.90;3.60;;;16.20;57.80;;;;;;5430705;26;20316;-84
2024/04/21 11:41:32;;;;;;;4.63;4.23;;;16.20;57.00;;;;;;5415455;26;20551;-84
2024/04/21 11:44:00;;;;;;;3.40;3.20;;;16.10;57.50;;;;;;5431021;26;20514;-83
2024/04/21 11:46:32;;;;;;;4.23;3.57;;;16.10;57.30;;;;;;5430176;26;20480;-83
2024/04/21 11:48:58;;;;;;;3.75;3.28;;;16.00;57.00;;;;;;5433730;26;20494;-83
2024/04/21 11:51:27;;;;;;;3.40;3.20;;;15.80;56.30;;;;;;5439202;26;20265;-82
2024/04/21 11:53:55;;;;;;;4.53;4.13;;;15.70;56.40;;;;;;5439162;26;20375;-82
2024/04/21 11:56:24;;;;;;;5.40;3.50;;;15.50;55.10;;;;;;5436934;26;20229;-81
2024/04/21 11:58:59;;;;;;;3.80;3.60;;;15.10;54.20;;;;;;5435991;26;20268;-81
2024/04/21 12:01:28;;;;;;;4.18;3.88;;;14.70;55.10;;;;;;5439022;26;20213;-80
2024/04/21 12:03:58;;;;;;;3.20;3.00;;;14.60;55.30;;;;;;5428359;26;20248;-80
2024/04/21 12:06:26;;;;;;;3.60;3.30;;;14.90;55.80;;;;;;5427160;26;20222;-83
2024/04/21 12:08:52;;;;;;;3.42;3.13;;;15.00;55.60;;;;;;5435532;26;20217;-78
2024/04/21 12:11:21;;;;;;;3.83;3.53;;;14.80;56.40;;;;;;5436712;26;20256;-79
2024/04/21 12:13:47;;;;;;;4.63;4.30;;;14.50;56.90;;;;;;5438731;26;20443;-81
2024/04/21 12:16:16;;;;;;;4.32;3.95;;;14.30;56.70;;;;;;5438052;26;20225;-79
2024/04/21 12:18:42;;;;;;;4.85;4.45;;;13.90;56.70;;;;;;5439236;26;20226;-80
2024/04/21 12:21:13;;;;;;;3.50;3.30;;;13.50;58.20;;;;;;5439838;26;20251;-79
2024/04/21 12:23:39;;;;;;;3.80;3.60;;;13.70;59.00;;;;;;5440448;26;20447;-78
2024/04/21 12:26:08;;;;;;;3.40;3.20;;;13.90;56.70;;;;;;5433071;26;20303;-79
2024/04/21 12:28:34;;;;;;;4.53;4.15;;;14.20;56.30;;;;;;5427432;26;20237;-80
2024/04/21 12:31:02;;;;;;;3.65;3.40;;;14.20;56.60;;;;;;5427565;26;20337;-80
2024/04/21 12:33:28;;;;;;;3.90;3.67;;;14.20;56.10;;;;;;5425628;26;20284;-82
2024/04/21 12:35:57;;;;;;;3.70;3.50;;;14.00;55.40;;;;;;5424920;26;20233;-79
2024/04/21 12:38:25;;;;;;;3.03;2.83;;;14.00;56.50;;;;;;5425712;26;20578;-82
2024/04/21 12:40:55;;;;;;;4.00;3.60;;;14.10;55.50;;;;;;5414808;26;20245;-79
2024/04/21 12:43:21;;;;;;;4.25;3.95;;;14.20;55.00;;;;;;5425239;26;20325;-81
2024/04/21 12:45:49;;;;;;;3.03;2.83;;;14.00;55.30;;;;;;5426814;26;20233;-79
2024/04/21 12:48:15;;;;;;;3.60;3.40;;;14.00;57.20;;;;;;5426181;26;20479;-80
2024/04/21 12:50:45;;;;;;;4.28;3.97;;;14.10;57.00;;;;;;5426698;26;20754;-80
2024/04/21 12:53:12;;;;;;;5.00;4.03;;;14.00;55.70;;;;;;5426011;26;20236;-79
2024/04/21 12:55:43;;;;;;;4.00;3.80;;;14.00;56.60;;;;;;5422736;26;20271;-79
2024/04/21 12:58:09;;;;;;;4.10;3.90;;;14.00;56.90;;;;;;5423911;26;20287;-80
2024/04/21 13:00:38;;;;;;;4.20;3.90;;;13.90;56.30;;;;;;5428640;26;20603;-82